createdAt,value
2023-04-16T05:04:47.994Z,101767.13
2023-04-16T05:07:16.758Z,101753.63
2023-04-16T05:09:45.021Z,101760.38
2023-04-16T05:12:13.598Z,101752.44
2023-04-16T05:14:41.931Z,101765.25
2023-04-16T05:17:11.040Z,101755.84
2023-04-16T05:19:39.433Z,101751.13
2023-04-16T05:22:09.338Z,101745.41
2023-04-16T05:24:37.659Z,101743.44
2023-04-16T05:27:07.441Z,101744.88
2023-04-16T05:29:35.815Z,101736.00
2023-04-16T05:32:04.723Z,101742.34
2023-04-16T05:34:33.069Z,101746.31
2023-04-16T05:37:01.562Z,101750.69
2023-04-16T05:39:31.744Z,101749.78
2023-04-16T05:42:00.255Z,101747.59
2023-04-16T05:44:28.580Z,101746.59
2023-04-16T05:46:56.956Z,101751.47
2023-04-16T05:49:25.419Z,101746.41
2023-04-16T05:51:53.715Z,101750.06
2023-04-16T05:54:22.054Z,101753.19
2023-04-16T05:56:52.460Z,101756.13
2023-04-16T05:59:21.080Z,101759.75
2023-04-16T06:01:50.120Z,101750.56
2023-04-16T06:04:19.715Z,101753.03
2023-04-16T06:06:48.152Z,101756.53
2023-04-16T06:09:16.812Z,101743.19
2023-04-16T06:11:45.622Z,101765.84
2023-04-16T06:14:15.451Z,101759.72
2023-04-16T06:16:43.796Z,101759.09
2023-04-16T06:19:12.452Z,101756.41
2023-04-16T06:21:40.882Z,101753.31
2023-04-16T06:24:09.142Z,101746.75
2023-04-16T06:26:37.524Z,101753.19
2023-04-16T06:29:05.974Z,101740.31
2023-04-16T06:31:35.962Z,101737.50
2023-04-16T06:34:04.931Z,101740.19
2023-04-16T06:36:33.839Z,101743.41
2023-04-16T06:39:02.351Z,101729.13
2023-04-16T06:41:30.955Z,101728.00
2023-04-16T06:43:59.352Z,101735.53
2023-04-16T06:46:27.886Z,101733.56
2023-04-16T06:48:57.846Z,101727.41
2023-04-16T06:51:26.871Z,101728.19
2023-04-16T06:53:55.260Z,101726.78
2023-04-16T06:56:23.700Z,101721.97
2023-04-16T06:58:52.052Z,101732.75
2023-04-16T07:01:20.643Z,101718.47
2023-04-16T07:03:49.279Z,101715.81
2023-04-16T07:06:19.351Z,101714.13
2023-04-16T07:08:48.362Z,101710.59
2023-04-16T07:11:17.377Z,101704.97
2023-04-16T07:13:45.628Z,101720.53
2023-04-16T07:16:14.239Z,101720.28
2023-04-16T07:18:42.587Z,101727.97
2023-04-16T07:21:11.002Z,101727.03
2023-04-16T07:23:40.914Z,101720.56
2023-04-16T07:26:09.404Z,101726.38
2023-04-16T07:28:37.712Z,101720.13
2023-04-16T07:31:06.265Z,101713.56
2023-04-16T07:33:36.325Z,101702.41
2023-04-16T07:36:04.659Z,101704.81
2023-04-16T07:38:34.703Z,101702.03
2023-04-16T07:41:05.493Z,101719.19
2023-04-16T07:43:33.777Z,101712.13
2023-04-16T07:46:02.531Z,101710.41
2023-04-16T07:48:31.209Z,101708.81
2023-04-16T07:50:59.564Z,101708.53
2023-04-16T07:53:27.841Z,101708.25
2023-04-16T07:55:56.983Z,101708.78
2023-04-16T07:58:26.681Z,101697.88
2023-04-16T08:00:55.032Z,101700.19
2023-04-16T08:03:24.185Z,101686.88
2023-04-16T08:05:52.810Z,101689.09
2023-04-16T08:08:21.235Z,101694.03
2023-04-16T08:10:49.892Z,101688.34
2023-04-16T08:13:18.431Z,101692.88
2023-04-16T08:15:48.304Z,101696.41
2023-04-16T08:18:16.742Z,101670.34
2023-04-16T08:20:45.552Z,101694.56
2023-04-16T08:23:13.871Z,101679.31
2023-04-16T08:25:42.266Z,101672.19
2023-04-16T08:28:10.525Z,101672.84
2023-04-16T08:30:38.928Z,101651.81
2023-04-16T08:33:09.017Z,101667.53
2023-04-16T08:35:37.436Z,101659.38
2023-04-16T08:38:07.555Z,101668.75
2023-04-16T08:40:40.302Z,101658.19
2023-04-16T08:43:12.479Z,101666.91
2023-04-16T08:45:42.945Z,101656.78
2023-04-16T08:48:13.479Z,101648.88
2023-04-16T08:50:42.737Z,101645.13
2023-04-16T08:53:12.921Z,101637.59
2023-04-16T08:55:43.000Z,101642.72
2023-04-16T08:58:15.583Z,101647.34
2023-04-16T09:00:46.277Z,101646.13
2023-04-16T09:03:16.371Z,101655.25
2023-04-16T09:05:45.617Z,101637.91
2023-04-16T09:08:14.210Z,101627.69
2023-04-16T09:10:42.970Z,101634.69
2023-04-16T09:13:13.652Z,101632.56
2023-04-16T09:15:43.065Z,101628.94
2023-04-16T09:18:12.260Z,101637.41
2023-04-16T09:20:42.210Z,101626.59
2023-04-16T09:23:11.154Z,101625.16
2023-04-16T09:25:40.250Z,101638.34
2023-04-16T09:28:08.705Z,101621.78
2023-04-16T09:30:37.320Z,101623.66
2023-04-16T09:33:17.682Z,101623.94
2023-04-16T09:35:51.747Z,101616.44
2023-04-16T09:38:20.667Z,101614.25
2023-04-16T09:40:48.994Z,101618.16
2023-04-16T09:43:18.601Z,101621.81
2023-04-16T09:45:52.075Z,101618.31
2023-04-16T09:48:30.369Z,101631.31
2023-04-16T09:51:00.769Z,101617.75
2023-04-16T09:53:30.382Z,101613.28
2023-04-16T09:55:59.166Z,101606.06
2023-04-16T09:58:29.489Z,101622.13
2023-04-16T10:00:58.756Z,101622.41
2023-04-16T10:03:32.237Z,101605.47
2023-04-16T10:06:03.796Z,101621.06
2023-04-16T10:08:32.219Z,101605.97
2023-04-16T10:11:01.031Z,101616.50
2023-04-16T10:13:31.291Z,101612.94
2023-04-16T10:16:00.662Z,101604.88
2023-04-16T10:18:29.261Z,101592.94
2023-04-16T10:20:59.411Z,101603.44
2023-04-16T10:23:29.390Z,101595.59
2023-04-16T10:25:58.610Z,101599.34
2023-04-16T10:28:29.347Z,101595.13
2023-04-16T10:30:58.751Z,101588.41
2023-04-16T10:33:32.794Z,101587.94
2023-04-16T10:36:11.986Z,101584.03
2023-04-16T10:38:42.720Z,101582.81
2023-04-16T10:41:10.982Z,101582.06
2023-04-16T10:43:44.095Z,101584.28
2023-04-16T10:46:24.696Z,101579.13
2023-04-16T10:48:56.619Z,101567.72
2023-04-16T10:51:27.972Z,101581.63
2023-04-16T10:53:58.730Z,101582.22
2023-04-16T10:56:28.183Z,101577.81
2023-04-16T10:58:57.548Z,101568.28
2023-04-16T11:01:32.955Z,101564.00
2023-04-16T11:04:04.974Z,101551.94
2023-04-16T11:06:33.553Z,101562.88
2023-04-16T11:09:05.879Z,101565.56
2023-04-16T11:11:39.892Z,101557.78
2023-04-16T11:14:09.982Z,101570.56
2023-04-16T11:16:42.174Z,101561.06
2023-04-16T11:19:18.233Z,101543.97
2023-04-16T11:21:47.186Z,101548.28
2023-04-16T11:24:17.016Z,101547.69
2023-04-16T11:26:45.555Z,101552.50
2023-04-16T11:29:16.451Z,101553.81
2023-04-16T11:31:46.726Z,101544.50
2023-04-16T11:34:15.675Z,101533.44
2023-04-16T11:36:47.370Z,101538.28
2023-04-16T11:39:17.726Z,101535.69
2023-04-16T11:41:46.334Z,101526.75
2023-04-16T11:44:25.410Z,101514.41
2023-04-16T11:46:55.052Z,101523.75
2023-04-16T11:49:29.815Z,101535.00
2023-04-16T11:51:58.647Z,101521.47
2023-04-16T11:54:34.872Z,101525.28
2023-04-16T11:57:04.509Z,101522.53
2023-04-16T11:59:33.456Z,101513.81
2023-04-16T12:02:01.904Z,101515.19
2023-04-16T12:04:30.585Z,101518.38
2023-04-16T12:07:12.260Z,101509.56
2023-04-16T12:09:42.991Z,101496.75
2023-04-16T12:12:27.784Z,101501.78
2023-04-16T12:14:57.393Z,101492.88
2023-04-16T12:17:26.279Z,101507.03
2023-04-16T12:19:57.711Z,101506.16
2023-04-16T12:22:30.413Z,101493.88
2023-04-16T12:25:02.987Z,101497.47
2023-04-16T12:27:49.539Z,101480.22
2023-04-16T12:30:22.572Z,101481.28
2023-04-16T12:32:52.748Z,101489.81
2023-04-16T12:35:36.049Z,101485.53
2023-04-16T12:38:04.806Z,101479.66
2023-04-16T12:40:36.040Z,101467.44
2023-04-16T12:43:04.491Z,101471.34
2023-04-16T12:45:32.865Z,101472.72
2023-04-16T12:48:01.865Z,101466.84
2023-04-16T12:50:30.250Z,101461.41
2023-04-16T12:52:59.025Z,101444.50
2023-04-16T12:55:27.583Z,101451.47
2023-04-16T12:57:57.237Z,101452.09
2023-04-16T13:00:26.026Z,101446.97
2023-04-16T13:02:54.510Z,101459.28
2023-04-16T13:05:22.943Z,101445.13
2023-04-16T13:07:51.301Z,101450.09
2023-04-16T13:10:19.849Z,101442.16
2023-04-16T13:12:49.326Z,101451.13
2023-04-16T13:15:19.186Z,101445.13
2023-04-16T13:17:47.743Z,101434.56
2023-04-16T13:20:16.622Z,101433.75
2023-04-16T13:22:45.083Z,101428.03
2023-04-16T13:25:13.454Z,101434.75
2023-04-16T13:27:41.887Z,101425.94
2023-04-16T13:30:10.926Z,101429.50
2023-04-16T13:32:41.335Z,101419.28
2023-04-16T13:35:11.981Z,101428.22
2023-04-16T13:37:40.449Z,101423.28
2023-04-16T13:40:10.262Z,101412.72
2023-04-16T13:42:38.748Z,101412.66
2023-04-16T13:45:09.490Z,101402.63
2023-04-16T13:47:37.957Z,101408.69
2023-04-16T13:50:08.519Z,101405.41
2023-04-16T13:52:37.681Z,101405.41
2023-04-16T13:55:06.661Z,101411.47
2023-04-16T13:57:35.202Z,101399.75
2023-04-16T14:00:04.619Z,101397.50
2023-04-16T14:02:35.165Z,101399.75
2023-04-16T14:05:03.833Z,101396.28
2023-04-16T14:07:35.661Z,101394.19
2023-04-16T14:10:04.039Z,101395.94
2023-04-16T14:12:32.945Z,101391.28
2023-04-16T14:15:02.260Z,101397.56
2023-04-16T14:17:32.280Z,101394.44
2023-04-16T14:20:00.852Z,101395.25
2023-04-16T14:22:29.170Z,101388.66
2023-04-16T14:24:59.572Z,101392.28
2023-04-16T14:27:28.865Z,101395.72
2023-04-16T14:29:57.763Z,101381.97
2023-04-16T14:32:26.261Z,101374.09
2023-04-16T14:34:54.780Z,101387.00
2023-04-16T14:37:23.183Z,101375.78
2023-04-16T14:39:51.903Z,101372.19
2023-04-16T14:42:22.563Z,101364.03
2023-04-16T14:44:52.307Z,101376.97
2023-04-16T14:47:20.967Z,101373.03
2023-04-16T14:49:49.287Z,101368.09
2023-04-16T14:52:18.202Z,101364.22
2023-04-16T14:54:47.909Z,101374.94
2023-04-16T14:57:17.933Z,101359.31
2023-04-16T14:59:48.435Z,101364.34
2023-04-16T15:02:17.229Z,101371.91
2023-04-16T15:04:46.008Z,101366.06
2023-04-16T15:07:14.355Z,101368.00
2023-04-16T15:09:42.983Z,101364.38
2023-04-16T15:12:11.893Z,101375.59
2023-04-16T15:14:40.337Z,101370.56
2023-04-16T15:17:10.680Z,101359.88
2023-04-16T15:19:39.098Z,101356.22
2023-04-16T15:22:07.436Z,101364.34
2023-04-16T15:24:35.799Z,101357.91
2023-04-16T15:27:06.016Z,101366.91
2023-04-16T15:29:34.587Z,101359.13
2023-04-16T15:32:02.913Z,101361.06
2023-04-16T15:34:32.775Z,101368.38
2023-04-16T15:37:01.399Z,101355.50
2023-04-16T15:39:29.931Z,101371.75
2023-04-16T15:42:01.877Z,101365.00
2023-04-16T15:44:31.854Z,101365.59
2023-04-16T15:47:00.560Z,101356.94
2023-04-16T15:49:28.903Z,101357.78
2023-04-16T15:51:58.700Z,101369.56
2023-04-16T15:54:27.356Z,101365.38
2023-04-16T15:56:55.935Z,101361.78
2023-04-16T15:59:24.407Z,101366.81
2023-04-16T16:01:53.530Z,101367.41
2023-04-16T16:04:23.279Z,101370.22
2023-04-16T16:06:52.008Z,101366.88
2023-04-16T16:09:26.386Z,101368.56
2023-04-16T16:11:55.714Z,101370.25
2023-04-16T16:14:24.491Z,101365.78
2023-04-16T16:16:52.850Z,101366.63
2023-04-16T16:19:21.259Z,101373.03
2023-04-16T16:21:49.670Z,101367.47
2023-04-16T16:24:18.585Z,101370.84
2023-04-16T16:26:48.399Z,101367.75
2023-04-16T16:29:16.899Z,101367.47
2023-04-16T16:31:46.327Z,101366.09
2023-04-16T16:34:20.771Z,101366.94
2023-04-16T16:36:50.308Z,101368.59
2023-04-16T16:39:22.448Z,101373.09
2023-04-16T16:41:52.935Z,101376.44
2023-04-16T16:44:21.534Z,101376.44
2023-04-16T16:46:50.241Z,101375.31
2023-04-16T16:49:19.182Z,101369.72
2023-04-16T16:51:48.286Z,101377.00
2023-04-16T16:54:16.931Z,101377.47
2023-04-16T16:56:45.391Z,101375.72
2023-04-16T16:59:15.195Z,101374.06
2023-04-16T17:01:43.473Z,101373.41
2023-04-16T17:04:12.046Z,101384.09
2023-04-16T17:06:40.647Z,101381.22
2023-04-16T17:09:09.082Z,101379.38
2023-04-16T17:11:37.834Z,101375.88
2023-04-16T17:14:06.514Z,101382.50
2023-04-16T17:16:36.934Z,101382.41
2023-04-16T17:19:05.989Z,101379.28
2023-04-16T17:21:34.414Z,101381.72
2023-04-16T17:24:02.821Z,101382.56
2023-04-16T17:26:32.055Z,101376.91
2023-04-16T17:29:00.717Z,101373.44
2023-04-16T17:31:29.137Z,101373.41
2023-04-16T17:33:59.735Z,101382.78
2023-04-16T17:36:28.095Z,101380.56
2023-04-16T17:38:56.944Z,101385.41
2023-04-16T17:41:25.443Z,101379.59
2023-04-16T17:43:53.814Z,101378.28
2023-04-16T17:46:22.161Z,101369.50
2023-04-16T17:48:50.675Z,101375.97
2023-04-16T17:51:20.491Z,101385.47
2023-04-16T17:53:48.887Z,101376.88
2023-04-16T17:56:17.318Z,101373.97
2023-04-16T17:58:45.743Z,101374.78
2023-04-16T18:01:14.088Z,101363.56
2023-04-16T18:03:44.534Z,101377.88
2023-04-16T18:06:13.130Z,101366.81
2023-04-16T18:08:42.832Z,101365.06
2023-04-16T18:11:12.047Z,101365.47
2023-04-16T18:13:40.305Z,101367.41
2023-04-16T18:16:16.781Z,101361.75
2023-04-16T18:18:45.698Z,101373.94
2023-04-16T18:21:14.546Z,101365.78
2023-04-16T18:23:44.465Z,101362.78
2023-04-16T18:26:12.929Z,101366.13
2023-04-16T18:28:41.658Z,101362.59
2023-04-16T18:31:10.964Z,101355.66
2023-04-16T18:33:55.737Z,101360.66
2023-04-16T18:36:26.234Z,101364.88
2023-04-16T18:41:28.488Z,101350.34
2023-04-16T18:43:56.936Z,101352.56
2023-04-16T18:46:25.479Z,101363.72
2023-04-16T18:48:53.994Z,101356.97
2023-04-16T18:51:22.387Z,101352.66
2023-04-16T18:53:51.397Z,101361.03
2023-04-16T18:56:21.285Z,101349.25
2023-04-16T18:58:49.705Z,101357.31
2023-04-16T19:01:18.111Z,101347.31
2023-04-16T19:03:46.725Z,101360.94
2023-04-16T19:06:15.125Z,101353.38
2023-04-16T19:08:43.409Z,101349.47
2023-04-16T19:11:11.916Z,101351.69
2023-04-16T19:13:43.160Z,101351.75
2023-04-16T19:16:12.524Z,101344.66
2023-04-16T19:18:40.925Z,101346.25
2023-04-16T19:21:11.001Z,101349.00
2023-04-16T19:23:39.551Z,101352.22
2023-04-16T19:26:08.113Z,101347.78
2023-04-16T19:28:36.385Z,101348.44
2023-04-16T19:31:06.603Z,101341.69
2023-04-16T19:33:35.091Z,101344.16
2023-04-16T19:36:03.568Z,101345.97
2023-04-16T19:38:32.813Z,101335.34
2023-04-16T19:41:01.239Z,101335.53
2023-04-16T19:43:31.112Z,101331.13
2023-04-16T19:45:59.849Z,101339.25
2023-04-16T19:48:30.518Z,101351.13
2023-04-16T19:51:02.317Z,101348.94
2023-04-16T19:53:30.571Z,101344.47
2023-04-16T19:55:58.882Z,101345.34
2023-04-16T19:58:27.525Z,101351.25
2023-04-16T20:00:56.493Z,101346.50
2023-04-16T20:03:24.975Z,101342.22
2023-04-16T20:05:54.913Z,101347.88
2023-04-16T20:08:23.146Z,101346.28
2023-04-16T20:10:51.451Z,101354.94
2023-04-16T20:13:19.829Z,101346.19
2023-04-16T20:15:48.484Z,101350.78
2023-04-16T20:18:18.174Z,101345.72
2023-04-16T20:20:47.280Z,101351.81
2023-04-16T20:23:17.020Z,101348.53
2023-04-16T20:25:46.332Z,101344.59
2023-04-16T20:28:16.480Z,101346.53
2023-04-16T20:30:44.884Z,101344.66
2023-04-16T20:33:13.211Z,101342.66
2023-04-16T20:35:41.874Z,101344.03
2023-04-16T20:38:10.379Z,101343.56
2023-04-16T20:40:42.073Z,101344.09
2023-04-16T20:43:14.484Z,101340.16
2023-04-16T20:45:46.350Z,101340.63
2023-04-16T20:48:14.704Z,101337.94
2023-04-16T20:50:43.613Z,101347.69
2023-04-16T20:53:13.242Z,101349.56
2023-04-16T20:55:45.541Z,101342.13
2023-04-16T20:58:14.914Z,101347.75
2023-04-16T21:00:43.241Z,101343.38
2023-04-16T21:03:12.198Z,101345.59
2023-04-16T21:05:42.016Z,101335.50
2023-04-16T21:08:10.353Z,101346.91
2023-04-16T21:10:40.393Z,101340.56
2023-04-16T21:13:12.489Z,101347.00
2023-04-16T21:15:43.007Z,101343.88
2023-04-16T21:18:13.372Z,101339.91
2023-04-16T21:20:42.768Z,101342.22
2023-04-16T21:23:12.272Z,101338.28
2023-04-16T21:25:40.989Z,101343.53
2023-04-16T21:28:13.616Z,101340.47
2023-04-16T21:30:43.754Z,101333.75
2023-04-16T21:33:15.074Z,101342.09
2023-04-16T21:35:43.803Z,101335.28
2023-04-16T21:38:12.631Z,101339.09
2023-04-16T21:40:41.645Z,101346.50
2023-04-16T21:43:13.377Z,101350.94
2023-04-16T21:45:42.228Z,101352.19
2023-04-16T21:48:10.553Z,101344.81
2023-04-16T21:50:39.114Z,101347.66
2023-04-16T21:53:07.770Z,101351.44
2023-04-16T21:55:36.421Z,101344.88
2023-04-16T21:58:05.350Z,101353.50
2023-04-16T22:00:35.126Z,101350.78
2023-04-16T22:03:04.435Z,101343.06
2023-04-16T22:05:33.435Z,101347.50
2023-04-16T22:08:10.913Z,101348.03
2023-04-16T22:10:49.764Z,101344.13
2023-04-16T22:13:18.210Z,101350.44
2023-04-16T22:15:48.070Z,101351.19
2023-04-16T22:18:16.454Z,101349.19
2023-04-16T22:20:47.229Z,101342.84
2023-04-16T22:23:15.991Z,101351.19
2023-04-16T22:25:44.802Z,101351.28
2023-04-16T22:28:13.063Z,101347.94
2023-04-16T22:30:41.473Z,101343.34
2023-04-16T22:33:11.347Z,101354.47
2023-04-16T22:35:40.164Z,101347.09
2023-04-16T22:38:09.049Z,101350.63
2023-04-16T22:40:37.435Z,101358.41
2023-04-16T22:43:05.949Z,101356.88
2023-04-16T22:45:34.783Z,101357.34
2023-04-16T22:48:03.056Z,101356.84
2023-04-16T22:50:32.832Z,101352.34
2023-04-16T22:53:01.267Z,101344.47
2023-04-16T22:55:29.597Z,101353.63
2023-04-16T22:58:01.412Z,101351.25
2023-04-16T23:00:29.804Z,101351.63
2023-04-16T23:02:58.104Z,101349.72
2023-04-16T23:05:26.669Z,101354.03
2023-04-16T23:07:56.928Z,101354.66
2023-04-16T23:10:25.159Z,101346.47
2023-04-16T23:12:53.809Z,101348.66
2023-04-16T23:15:22.025Z,101352.22
2023-04-16T23:17:50.921Z,101350.31
2023-04-16T23:20:19.549Z,101346.44
2023-04-16T23:22:47.943Z,101349.91
2023-04-16T23:25:18.203Z,101345.44
2023-04-16T23:27:46.528Z,101352.84
2023-04-16T23:30:15.949Z,101344.94
2023-04-16T23:32:44.296Z,101345.72
2023-04-16T23:35:12.826Z,101345.97
2023-04-16T23:37:41.579Z,101338.72
2023-04-16T23:40:11.623Z,101343.91
2023-04-16T23:42:41.478Z,101349.53
2023-04-16T23:45:11.118Z,101350.63
2023-04-16T23:47:40.301Z,101349.47
2023-04-16T23:50:09.259Z,101346.88
2023-04-16T23:52:37.654Z,101343.19
2023-04-16T23:55:06.755Z,101353.47
2023-04-16T23:57:35.210Z,101353.16
